createdAt,value
2023-02-05T00:00:19.441Z,98897.59
2023-02-05T00:02:48.904Z,98893.22
2023-02-05T00:05:18.861Z,98898.00
2023-02-05T00:07:47.601Z,98892.66
2023-02-05T00:10:19.753Z,98896.59
2023-02-05T00:12:48.080Z,98900.09
2023-02-05T00:15:16.443Z,98897.53
2023-02-05T00:17:44.655Z,98898.91
2023-02-05T00:20:13.877Z,98902.88
2023-02-05T00:22:43.523Z,98899.72
2023-02-05T00:25:12.041Z,98898.56
2023-02-05T00:27:40.387Z,98905.25
2023-02-05T00:30:10.918Z,98900.81
2023-02-05T00:32:39.287Z,98900.00
2023-02-05T00:35:08.462Z,98895.38
2023-02-05T00:37:37.341Z,98897.22
2023-02-05T00:40:08.570Z,98899.00
2023-02-05T00:42:37.518Z,98903.56
2023-02-05T00:45:10.614Z,98888.03
2023-02-05T00:47:39.143Z,98892.88
2023-02-05T00:50:08.123Z,98901.38
2023-02-05T00:52:37.181Z,98898.31
2023-02-05T00:55:08.430Z,98895.38
2023-02-05T00:57:37.060Z,98893.13
2023-02-05T01:00:07.067Z,98892.34
2023-02-05T01:02:35.726Z,98884.66
2023-02-05T01:05:04.373Z,98885.38
2023-02-05T01:07:33.225Z,98872.09
2023-02-05T01:10:01.873Z,98878.00
2023-02-05T01:12:36.066Z,98874.88
2023-02-05T01:15:08.161Z,98878.72
2023-02-05T01:17:37.081Z,98888.75
2023-02-05T01:20:07.192Z,98885.91
2023-02-05T01:22:35.799Z,98886.38
2023-02-05T01:25:04.677Z,98891.78
2023-02-05T01:27:36.530Z,98887.34
2023-02-05T01:30:06.747Z,98895.09
2023-02-05T01:32:36.793Z,98894.38
2023-02-05T01:35:05.900Z,98899.72
2023-02-05T01:37:34.846Z,98899.97
2023-02-05T01:40:06.754Z,98902.09
2023-02-05T01:42:36.730Z,98904.34
2023-02-05T01:45:51.754Z,98881.47
2023-02-05T01:48:26.365Z,98887.72
2023-02-05T01:51:00.517Z,98882.03
2023-02-05T01:53:37.133Z,98881.13
2023-02-05T01:56:11.519Z,98879.09
2023-02-05T01:58:46.689Z,98880.94
2023-02-05T02:01:15.796Z,98869.09
2023-02-05T02:03:45.440Z,98871.50
2023-02-05T02:06:13.852Z,98862.94
2023-02-05T02:08:42.159Z,98870.97
2023-02-05T02:11:17.329Z,98859.63
2023-02-05T02:13:50.024Z,98868.94
2023-02-05T02:16:21.469Z,98857.78
2023-02-05T02:18:50.976Z,98862.13
2023-02-05T02:22:22.183Z,98856.50
2023-02-05T02:25:11.934Z,98853.53
2023-02-05T02:27:46.919Z,98855.63
2023-02-05T02:30:25.424Z,98858.00
2023-02-05T02:33:07.093Z,98858.63
2023-02-05T02:35:47.088Z,98856.31
2023-02-05T02:38:23.499Z,98851.38
2023-02-05T02:40:57.237Z,98858.38
2023-02-05T02:43:39.254Z,98849.72
2023-02-05T02:46:17.443Z,98848.47
2023-02-05T02:48:49.463Z,98839.84
2023-02-05T02:51:20.948Z,98842.31
2023-02-05T02:53:54.395Z,98839.53
2023-02-05T02:56:28.520Z,98836.13
2023-02-05T02:59:06.341Z,98830.97
2023-02-05T03:01:46.932Z,98826.31
2023-02-05T03:04:26.483Z,98813.63
2023-02-05T03:07:01.305Z,98805.81
2023-02-05T03:09:39.229Z,98806.63
2023-02-05T03:12:08.598Z,98811.97
2023-02-05T03:14:39.708Z,98804.31
2023-02-05T03:17:08.515Z,98805.97
2023-02-05T03:19:37.435Z,98803.50
2023-02-05T03:22:07.877Z,98800.19
2023-02-05T03:24:38.094Z,98806.34
2023-02-05T03:27:06.630Z,98815.50
2023-02-05T03:29:44.819Z,98814.16
2023-02-05T03:33:00.149Z,98814.81
2023-02-05T03:35:42.117Z,98820.78
2023-02-05T03:38:39.731Z,98825.13
2023-02-05T03:41:45.313Z,98819.44
2023-02-05T03:44:29.540Z,98822.44
2023-02-05T03:47:11.359Z,98824.13
2023-02-05T03:49:53.452Z,98823.44
2023-02-05T03:52:30.656Z,98819.50
2023-02-05T03:55:09.277Z,98824.06
2023-02-05T03:57:49.343Z,98814.28
2023-02-05T04:00:19.133Z,98809.63
2023-02-05T04:02:50.493Z,98814.91
2023-02-05T04:05:23.105Z,98811.72
2023-02-05T04:07:54.690Z,98816.72
2023-02-05T04:10:27.514Z,98809.69
2023-02-05T04:12:56.642Z,98795.72
2023-02-05T04:15:25.857Z,98792.06
2023-02-05T04:17:58.901Z,98793.16
2023-02-05T04:20:29.689Z,98788.13
2023-02-05T04:22:58.964Z,98781.50
2023-02-05T04:25:28.961Z,98781.38
2023-02-05T04:28:02.112Z,98787.75
2023-02-05T04:30:32.023Z,98783.34
2023-02-05T04:33:02.452Z,98792.81
2023-02-05T04:35:31.153Z,98794.41
2023-02-05T04:38:00.009Z,98795.13
2023-02-05T04:40:28.780Z,98800.19
2023-02-05T04:42:57.102Z,98799.34
2023-02-05T04:45:29.057Z,98796.69
2023-02-05T04:47:57.477Z,98796.59
2023-02-05T04:50:27.968Z,98783.34
2023-02-05T04:52:56.303Z,98784.34
2023-02-05T04:55:24.895Z,98779.84
2023-02-05T04:57:56.890Z,98778.56
2023-02-05T05:00:26.160Z,98776.88
2023-02-05T05:02:54.903Z,98772.84
2023-02-05T05:05:26.273Z,98777.81
2023-02-05T05:07:55.936Z,98773.53
2023-02-05T05:10:24.635Z,98779.84
2023-02-05T05:12:54.553Z,98779.50
2023-02-05T05:15:24.186Z,98780.50
2023-02-05T05:17:52.524Z,98785.53
2023-02-05T05:20:21.068Z,98783.75
2023-02-05T05:22:50.003Z,98787.16
2023-02-05T05:25:19.926Z,98787.84
2023-02-05T05:27:48.586Z,98783.75
2023-02-05T05:30:17.361Z,98794.78
2023-02-05T05:32:46.210Z,98788.81
2023-02-05T05:35:14.998Z,98785.63
2023-02-05T05:37:43.342Z,98782.31
2023-02-05T05:40:31.655Z,98781.81
2023-02-05T05:43:18.732Z,98788.00
2023-02-05T05:45:47.162Z,98784.13
2023-02-05T05:48:15.476Z,98783.66
2023-02-05T05:50:44.184Z,98780.88
2023-02-05T05:53:12.479Z,98781.88
2023-02-05T05:55:42.007Z,98780.22
2023-02-05T05:58:12.547Z,98776.88
2023-02-05T06:00:42.197Z,98779.78
2023-02-05T06:03:12.615Z,98785.31
2023-02-05T06:05:41.713Z,98787.66
2023-02-05T06:08:09.947Z,98785.41
2023-02-05T06:10:38.308Z,98795.38
2023-02-05T06:13:06.666Z,98791.53
2023-02-05T06:15:36.782Z,98784.22
2023-02-05T06:18:05.634Z,98783.03
2023-02-05T06:20:33.902Z,98790.16
2023-02-05T06:23:02.644Z,98791.16
2023-02-05T06:25:31.018Z,98783.81
2023-02-05T06:27:59.412Z,98778.25
2023-02-05T06:30:28.128Z,98776.72
2023-02-05T06:32:57.826Z,98772.50
2023-02-05T06:35:26.252Z,98780.44
2023-02-05T06:37:54.911Z,98776.63
2023-02-05T06:40:25.895Z,98789.03
2023-02-05T06:42:54.810Z,98790.81
2023-02-05T06:45:23.873Z,98794.47
2023-02-05T06:47:55.908Z,98786.28
2023-02-05T06:50:29.891Z,98792.81
2023-02-05T06:52:58.256Z,98792.88
2023-02-05T06:55:26.743Z,98782.59
2023-02-05T06:57:55.139Z,98784.25
2023-02-05T07:00:23.857Z,98784.63
2023-02-05T07:02:53.245Z,98774.94
2023-02-05T07:05:21.671Z,98779.34
2023-02-05T07:07:51.401Z,98776.06
2023-02-05T07:10:20.206Z,98782.31
2023-02-05T07:12:48.573Z,98787.53
2023-02-05T07:15:16.975Z,98792.56
2023-02-05T07:17:45.430Z,98781.88
2023-02-05T07:20:14.109Z,98773.16
2023-02-05T07:22:42.489Z,98783.66
2023-02-05T07:25:12.185Z,98779.25
2023-02-05T07:27:40.939Z,98782.56
2023-02-05T07:30:11.248Z,98779.63
2023-02-05T07:32:39.846Z,98782.66
2023-02-05T07:35:08.673Z,98789.44
2023-02-05T07:37:39.493Z,98785.06
2023-02-05T07:40:09.802Z,98784.75
2023-02-05T07:42:39.552Z,98781.66
2023-02-05T07:45:10.581Z,98791.06
2023-02-05T07:47:39.264Z,98810.69
2023-02-05T07:50:08.170Z,98804.84
2023-02-05T07:52:36.534Z,98807.50
2023-02-05T07:55:04.932Z,98801.22
2023-02-05T07:57:33.240Z,98799.22
2023-02-05T08:00:07.544Z,98795.50
2023-02-05T08:02:40.761Z,98792.41
2023-02-05T08:05:09.958Z,98793.06
2023-02-05T08:07:39.085Z,98782.31
2023-02-05T08:10:08.477Z,98788.66
2023-02-05T08:12:36.948Z,98772.06
2023-02-05T08:15:07.386Z,98758.53
2023-02-05T08:17:36.081Z,98755.97
2023-02-05T08:20:07.604Z,98762.28
2023-02-05T08:22:38.241Z,98754.47
2023-02-05T08:25:09.616Z,98753.09
2023-02-05T08:27:39.984Z,98751.91
2023-02-05T08:30:14.430Z,98745.16
2023-02-05T08:32:43.109Z,98732.44
2023-02-05T08:35:11.403Z,98736.44
2023-02-05T08:37:39.701Z,98737.09
2023-02-05T08:40:10.373Z,98740.91
2023-02-05T08:42:38.625Z,98726.81
2023-02-05T08:45:09.758Z,98724.56
2023-02-05T08:47:38.750Z,98724.25
2023-02-05T08:50:09.075Z,98715.22
2023-02-05T08:52:37.946Z,98717.53
2023-02-05T08:55:07.164Z,98699.84
2023-02-05T08:57:35.802Z,98702.41
2023-02-05T09:00:05.334Z,98704.75
2023-02-05T09:02:35.096Z,98693.13
2023-02-05T09:05:08.959Z,98701.72
2023-02-05T09:07:39.398Z,98708.91
2023-02-05T09:10:13.191Z,98703.88
2023-02-05T09:12:41.846Z,98705.19
2023-02-05T09:15:11.641Z,98707.97
2023-02-05T09:17:41.337Z,98696.97
2023-02-05T09:20:11.837Z,98697.97
2023-02-05T09:22:40.507Z,98704.06
2023-02-05T09:25:09.546Z,98696.59
2023-02-05T09:27:37.837Z,98695.41
2023-02-05T09:30:06.992Z,98695.69
2023-02-05T09:32:35.527Z,98690.88
2023-02-05T09:35:05.293Z,98688.78
2023-02-05T09:37:33.581Z,98690.28
2023-02-05T09:40:20.009Z,98680.22
2023-02-05T09:43:02.760Z,98675.56
2023-02-05T09:45:46.462Z,98676.75
2023-02-05T09:48:53.043Z,98668.09
2023-02-05T09:51:32.088Z,98661.97
2023-02-05T09:54:13.099Z,98654.75
2023-02-05T09:56:43.258Z,98644.94
2023-02-05T09:59:18.233Z,98641.25
2023-02-05T10:01:52.512Z,98638.31
2023-02-05T10:04:21.376Z,98635.75
2023-02-05T10:07:26.532Z,98639.09
2023-02-05T10:10:18.747Z,98632.19
2023-02-05T10:13:29.023Z,98631.56
2023-02-05T10:16:23.360Z,98629.72
2023-02-05T10:19:23.476Z,98635.16
2023-02-05T10:22:13.471Z,98620.59
2023-02-05T10:25:20.938Z,98611.88
2023-02-05T10:28:04.897Z,98617.53
2023-02-05T10:30:50.875Z,98614.44
2023-02-05T10:33:29.219Z,98611.16
2023-02-05T10:36:03.492Z,98612.38
2023-02-05T10:38:41.050Z,98611.94
2023-02-05T10:41:20.983Z,98604.63
2023-02-05T10:43:55.297Z,98610.94
2023-02-05T10:46:32.158Z,98606.00
2023-02-05T10:49:09.488Z,98608.56
2023-02-05T10:51:42.952Z,98608.81
2023-02-05T10:54:22.004Z,98596.41
2023-02-05T10:56:50.563Z,98600.81
2023-02-05T10:59:26.976Z,98594.59
2023-02-05T11:01:59.123Z,98591.28
2023-02-05T11:04:38.997Z,98591.94
2023-02-05T11:07:15.109Z,98597.84
2023-02-05T11:09:46.205Z,98596.31
2023-02-05T11:12:27.903Z,98595.81
2023-02-05T11:15:05.964Z,98596.59
2023-02-05T11:17:39.950Z,98586.31
2023-02-05T11:20:25.364Z,98588.28
2023-02-05T11:23:16.817Z,98580.13
2023-02-05T11:26:08.228Z,98574.00
2023-02-05T11:28:39.826Z,98572.28
2023-02-05T11:31:26.414Z,98577.50
2023-02-05T11:34:13.023Z,98563.00
2023-02-05T11:36:51.029Z,98575.66
2023-02-05T11:39:34.267Z,98574.72
2023-02-05T11:42:16.939Z,98575.34
2023-02-05T11:44:52.492Z,98579.44
2023-02-05T11:47:29.740Z,98573.94
2023-02-05T11:50:00.141Z,98569.97
2023-02-05T11:52:32.305Z,98566.91
2023-02-05T11:55:01.761Z,98561.00
2023-02-05T11:57:39.013Z,98560.63
2023-02-05T12:00:23.127Z,98553.97
2023-02-05T12:03:02.501Z,98555.16
2023-02-05T12:05:37.014Z,98565.88
2023-02-05T12:08:14.149Z,98557.09
2023-02-05T12:10:53.773Z,98547.63
2023-02-05T12:13:44.096Z,98544.88
2023-02-05T12:16:25.570Z,98541.38
2023-02-05T12:19:04.820Z,98539.19
2023-02-05T12:21:48.284Z,98547.75
2023-02-05T12:24:47.574Z,98549.00
2023-02-05T12:27:34.944Z,98541.97
2023-02-05T12:30:28.590Z,98545.69
2023-02-05T12:33:18.142Z,98541.50
2023-02-05T12:36:04.710Z,98544.03
2023-02-05T12:38:51.974Z,98538.31
2023-02-05T12:41:37.701Z,98528.44
2023-02-05T12:44:25.879Z,98530.09
2023-02-05T12:47:24.121Z,98525.06
2023-02-05T12:50:16.459Z,98522.13
2023-02-05T12:53:06.821Z,98520.47
2023-02-05T12:55:54.312Z,98518.09
2023-02-05T12:58:27.123Z,98514.94
2023-02-05T13:01:04.085Z,98510.69
2023-02-05T13:03:42.107Z,98513.38
2023-02-05T13:06:18.500Z,98516.09
2023-02-05T13:08:54.148Z,98511.25
2023-02-05T13:11:33.319Z,98506.94
2023-02-05T13:14:15.321Z,98496.81
2023-02-05T13:16:51.002Z,98503.63
2023-02-05T13:19:29.561Z,98506.09
2023-02-05T13:22:19.499Z,98493.44
2023-02-05T13:25:11.285Z,98499.53
2023-02-05T13:28:02.996Z,98485.59
2023-02-05T13:30:39.871Z,98483.69
2023-02-05T13:33:10.182Z,98471.63
2023-02-05T13:35:58.766Z,98477.72
2023-02-05T13:38:53.970Z,98477.94
2023-02-05T13:42:08.678Z,98480.53
2023-02-05T13:45:22.060Z,98478.66
2023-02-05T13:48:12.688Z,98477.16
2023-02-05T13:51:39.634Z,98480.09
2023-02-05T13:54:50.878Z,98480.22
2023-02-05T13:58:11.034Z,98475.63
2023-02-05T14:00:43.643Z,98475.19
2023-02-05T14:03:35.107Z,98483.28
2023-02-05T14:06:24.495Z,98477.53
2023-02-05T14:09:05.058Z,98484.22
2023-02-05T14:11:56.784Z,98487.72
2023-02-05T14:14:32.665Z,98489.97
2023-02-05T14:17:03.139Z,98498.88
2023-02-05T14:19:57.272Z,98494.72
2023-02-05T14:22:42.643Z,98491.00
2023-02-05T14:26:06.485Z,98494.59
2023-02-05T14:28:48.312Z,98490.75
2023-02-05T14:31:50.847Z,98488.72
2023-02-05T14:35:00.732Z,98487.41
2023-02-05T14:37:40.928Z,98478.72
2023-02-05T14:40:32.395Z,98479.53
2023-02-05T14:43:13.834Z,98474.84
2023-02-05T14:45:51.268Z,98471.91
2023-02-05T14:48:26.756Z,98472.81
2023-02-05T14:51:10.045Z,98471.66
2023-02-05T14:53:39.962Z,98474.44
2023-02-05T14:56:09.206Z,98477.81
2023-02-05T14:58:44.367Z,98478.72
2023-02-05T15:01:45.773Z,98484.34
2023-02-05T15:04:29.539Z,98494.75
2023-02-05T15:07:02.662Z,98501.91
2023-02-05T15:09:44.713Z,98495.44
2023-02-05T15:12:57.457Z,98497.41
2023-02-05T15:15:33.525Z,98498.44
2023-02-05T15:18:25.246Z,98499.56
2023-02-05T15:20:57.592Z,98499.56
2023-02-05T15:23:36.993Z,98504.00
2023-02-05T15:26:09.824Z,98502.97
2023-02-05T15:28:47.895Z,98497.34
2023-02-05T15:31:32.784Z,98494.88
2023-02-05T15:34:21.644Z,98493.13
2023-02-05T15:36:55.980Z,98498.31
2023-02-05T15:39:32.980Z,98499.13
2023-02-05T15:42:04.400Z,98498.91
2023-02-05T15:44:35.615Z,98497.94
2023-02-05T15:47:14.448Z,98486.81
2023-02-05T15:49:49.642Z,98498.38
2023-02-05T15:52:26.852Z,98493.00
2023-02-05T15:55:00.292Z,98484.09
2023-02-05T15:57:32.274Z,98488.28
2023-02-05T16:00:03.090Z,98490.69
2023-02-05T16:02:33.271Z,98494.66
2023-02-05T16:05:18.044Z,98494.06
2023-02-05T16:07:51.930Z,98507.16
2023-02-05T16:10:24.372Z,98507.28
2023-02-05T16:13:00.814Z,98504.38
2023-02-05T16:15:35.045Z,98506.84
2023-02-05T16:18:12.408Z,98513.50
2023-02-05T16:20:48.117Z,98519.94
2023-02-05T16:23:25.451Z,98524.94
2023-02-05T16:25:58.594Z,98521.78
2023-02-05T16:28:44.396Z,98520.53
2023-02-05T16:31:20.679Z,98523.06
2023-02-05T16:33:55.776Z,98524.25
2023-02-05T16:36:31.378Z,98521.13
2023-02-05T16:39:05.675Z,98521.13
2023-02-05T16:41:39.630Z,98527.41
2023-02-05T16:44:28.043Z,98530.94
2023-02-05T16:47:15.277Z,98531.97
2023-02-05T16:49:44.694Z,98540.06
2023-02-05T16:52:32.595Z,98532.78
2023-02-05T16:55:07.391Z,98535.09
2023-02-05T16:57:39.582Z,98536.41
2023-02-05T17:00:21.466Z,98532.34
2023-02-05T17:02:56.841Z,98540.41
2023-02-05T17:05:29.624Z,98533.66
2023-02-05T17:08:02.897Z,98542.38
2023-02-05T17:10:31.798Z,98545.25
2023-02-05T17:13:04.943Z,98540.75
2023-02-05T17:15:40.294Z,98541.78
2023-02-05T17:18:32.177Z,98537.50
2023-02-05T17:21:25.773Z,98533.63
2023-02-05T17:23:57.837Z,98542.84
2023-02-05T17:26:30.799Z,98544.38
2023-02-05T17:29:02.707Z,98540.88
2023-02-05T17:31:35.861Z,98540.66
2023-02-05T17:34:05.240Z,98540.50
2023-02-05T17:36:34.040Z,98537.00
2023-02-05T17:39:03.725Z,98538.22
2023-02-05T17:41:56.163Z,98540.53
2023-02-05T17:44:24.434Z,98540.19
2023-02-05T17:46:54.134Z,98534.38
2023-02-05T17:49:23.880Z,98529.25
2023-02-05T17:51:52.241Z,98528.50
2023-02-05T17:54:25.486Z,98522.53
2023-02-05T17:56:57.906Z,98526.66
2023-02-05T17:59:27.628Z,98532.91
2023-02-05T18:01:55.932Z,98545.94
2023-02-05T18:04:24.300Z,98544.34
2023-02-05T18:06:53.951Z,98553.03
2023-02-05T18:09:23.718Z,98554.13
2023-02-05T18:11:52.057Z,98566.72
2023-02-05T18:14:20.564Z,98571.94
2023-02-05T18:16:52.416Z,98563.91
2023-02-05T18:19:20.789Z,98563.94
2023-02-05T18:21:49.686Z,98564.38
2023-02-05T18:24:17.924Z,98573.09
2023-02-05T18:26:52.319Z,98568.75
2023-02-05T18:29:21.496Z,98569.41
2023-02-05T18:31:50.130Z,98570.28
2023-02-05T18:34:18.809Z,98575.84
2023-02-05T18:36:47.130Z,98578.09
2023-02-05T18:39:15.805Z,98577.69
2023-02-05T18:41:44.497Z,98574.41
2023-02-05T18:44:16.007Z,98582.84
2023-02-05T18:46:44.690Z,98589.88
2023-02-05T18:49:13.346Z,98583.47
2023-02-05T18:51:41.712Z,98586.78
2023-02-05T18:54:10.678Z,98575.19
2023-02-05T18:56:39.712Z,98579.34
2023-02-05T18:59:13.188Z,98588.00
2023-02-05T19:01:44.191Z,98588.00
2023-02-05T19:04:15.047Z,98589.84
2023-02-05T19:06:44.526Z,98594.41
2023-02-05T19:09:13.954Z,98592.94
2023-02-05T19:11:43.616Z,98596.47
2023-02-05T19:14:15.453Z,98603.50
2023-02-05T19:16:47.202Z,98602.47
2023-02-05T19:19:18.068Z,98599.56
2023-02-05T19:21:47.775Z,98606.81
2023-02-05T19:24:18.491Z,98620.41
2023-02-05T19:26:48.253Z,98604.13
2023-02-05T19:29:20.461Z,98614.44
2023-02-05T19:31:52.214Z,98614.44
2023-02-05T19:34:22.220Z,98607.59
2023-02-05T19:36:50.816Z,98610.06
2023-02-05T19:39:19.080Z,98615.03
2023-02-05T19:41:48.407Z,98615.22
2023-02-05T19:44:17.503Z,98612.75
2023-02-05T19:46:48.856Z,98619.78
2023-02-05T19:49:21.080Z,98627.81
2023-02-05T19:51:52.798Z,98628.47
2023-02-05T19:54:21.888Z,98636.72
2023-02-05T19:56:50.958Z,98639.97
2023-02-05T19:59:19.830Z,98645.94
2023-02-05T20:01:49.946Z,98646.59
2023-02-05T20:04:24.327Z,98649.66
2023-02-05T20:06:57.510Z,98656.03
2023-02-05T20:09:27.784Z,98653.97
2023-02-05T20:11:56.278Z,98659.75
2023-02-05T20:14:26.113Z,98650.91
2023-02-05T20:16:54.888Z,98656.66
2023-02-05T20:19:24.598Z,98657.47
2023-02-05T20:21:52.889Z,98668.84
2023-02-05T20:24:21.210Z,98674.41
2023-02-05T20:26:49.639Z,98682.25
2023-02-05T20:29:35.734Z,98687.84
2023-02-05T20:32:04.180Z,98693.22
2023-02-05T20:34:36.282Z,98705.38
2023-02-05T20:37:09.035Z,98699.78
2023-02-05T20:39:41.801Z,98704.56
2023-02-05T20:42:13.462Z,98701.91
2023-02-05T20:44:43.186Z,98697.59
2023-02-05T20:47:14.581Z,98685.00
2023-02-05T20:49:44.488Z,98692.66
2023-02-05T20:52:13.164Z,98688.34
2023-02-05T20:54:44.773Z,98688.50
2023-02-05T20:57:13.830Z,98697.38
2023-02-05T20:59:42.207Z,98707.06
2023-02-05T21:02:13.689Z,98716.91
2023-02-05T21:04:43.721Z,98711.13
2023-02-05T21:07:12.400Z,98720.63
2023-02-05T21:09:41.121Z,98723.28
2023-02-05T21:12:09.597Z,98723.03
2023-02-05T21:14:38.886Z,98726.13
2023-02-05T21:17:09.284Z,98739.84
2023-02-05T21:19:37.618Z,98742.44
2023-02-05T21:22:11.289Z,98742.19
2023-02-05T21:24:39.907Z,98750.41
2023-02-05T21:27:08.797Z,98760.50
2023-02-05T21:29:37.134Z,98760.28
2023-02-05T21:32:05.968Z,98760.47
2023-02-05T21:34:34.622Z,98759.84
2023-02-05T21:37:03.264Z,98760.44
2023-02-05T21:39:33.677Z,98760.34
2023-02-05T21:42:02.191Z,98766.88
2023-02-05T21:44:30.880Z,98764.03
2023-02-05T21:47:00.142Z,98758.53
2023-02-05T21:49:28.603Z,98754.84
2023-02-05T21:51:57.236Z,98752.38
2023-02-05T21:54:25.941Z,98758.31
2023-02-05T21:56:55.863Z,98746.53
2023-02-05T21:59:24.319Z,98748.53
2023-02-05T22:01:53.592Z,98755.56
2023-02-05T22:04:21.950Z,98767.66
2023-02-05T22:06:51.917Z,98770.16
2023-02-05T22:09:20.606Z,98785.44
2023-02-05T22:11:51.085Z,98778.69
2023-02-05T22:14:21.236Z,98785.81
2023-02-05T22:16:49.764Z,98784.19
2023-02-05T22:19:18.091Z,98782.09
2023-02-05T22:21:46.378Z,98790.84
2023-02-05T22:24:17.772Z,98794.03
2023-02-05T22:26:47.070Z,98786.91
2023-02-05T22:29:18.317Z,98801.00
2023-02-05T22:31:52.250Z,98794.97
2023-02-05T22:34:21.014Z,98803.13
2023-02-05T22:36:49.344Z,98808.41
2023-02-05T22:39:17.650Z,98822.78
2023-02-05T22:41:46.377Z,98810.78
2023-02-05T22:44:18.688Z,98809.41
2023-02-05T22:46:48.485Z,98815.38
2023-02-05T22:49:16.906Z,98815.75
2023-02-05T22:51:45.758Z,98819.91
2023-02-05T22:54:16.007Z,98831.63
2023-02-05T22:56:48.315Z,98828.69
2023-02-05T22:59:17.016Z,98827.97
2023-02-05T23:01:45.406Z,98829.38
2023-02-05T23:04:15.130Z,98841.66
2023-02-05T23:06:45.189Z,98835.63
2023-02-05T23:09:16.796Z,98843.44
2023-02-05T23:11:46.684Z,98846.03
2023-02-05T23:14:17.571Z,98836.88
2023-02-05T23:16:48.186Z,98838.78
2023-02-05T23:19:22.414Z,98844.78
2023-02-05T23:21:51.062Z,98855.50
2023-02-05T23:24:21.396Z,98861.41
2023-02-05T23:26:53.437Z,98863.03
2023-02-05T23:29:22.471Z,98861.97
2023-02-05T23:31:54.232Z,98859.13
2023-02-05T23:34:23.961Z,98852.28
2023-02-05T23:36:52.627Z,98865.78
2023-02-05T23:39:21.038Z,98875.66
2023-02-05T23:41:49.315Z,98868.19
2023-02-05T23:44:23.870Z,98862.78
2023-02-05T23:46:53.046Z,98871.19
2023-02-05T23:49:23.635Z,98873.53
2023-02-05T23:51:54.042Z,98867.66
2023-02-05T23:54:23.643Z,98869.94
2023-02-05T23:56:52.379Z,98872.72
2023-02-05T23:59:20.732Z,98861.66
